Warning: Javascript must be enabled to use all the features on this page!


Page Loading - Please Wait...

Click to hideNews Bulletins

Peak Streamflow for the Nation

USGS 11044250 RAINBOW C NR FALLBROOK CA

San Diego County, California
Hydrologic Unit Code 18070302
Latitude  33°24'27", Longitude 117°12'00" NAD27
Drainage area 10.3  square miles
Output formats
Table
Graph
Tab-separated file
peakfq (watstore) format
Reselect output format
Water
Year
Date Gage
Height
(feet)
Stream-
flow
(cfs)
1992 1992-02-15 4.86 256
1993 1993-01-16   8,0002
1994 1994-02-07 5.96 695
1995 1995-01-04 8.24 1,280
1996 1996-03-13 4.78 220
1997 1996-11-22 5.46 358
1998 1998-02-23 8.35 1,330
1999 1999-01-26 4.13 101
2000 2000-02-21 5.34 342
2001 2001-01-11 5.09 214
2002 2001-11-24 4.14 69.0
2003 2003-03-15 6.26 476
2004 2004-02-26 5.15 158
2005 2005-01-11 10.41 4,010
2006 2006-04-04 5.74 311C
2007 2007-04-20 4.112 23.0C
2008 2008-01-27 7.01 807C
2009 2008-12-15 7.34 982C
2010 2009-11-28 5.59 266C
2011 2010-12-22 10.41 4,0102,C
2012 2012-01-23 6.42 153C
2013 2012-12-13 6.33 122C
2014 2014-02-28 7.02 316C
2015 2014-12-04 6.48 146C
2016 2016-01-05 6.64 201C
2017 2017-01-22 9.73 849C
2018 2018-01-09 6.77 123C
2019 2019-02-14 10.71 1,390C
2020 2020-04-10 8.62 511C
2021 2021-01-29 6.51 107C
?
  Peak Gage-Height Qualification Codes.
?
  Peak Streamflow Qualification Codes.